sensor_id;sensor_type;location;lat;lon;timestamp;pressure;altitude;pressure_sealevel;temperature
19040;BMP180;9652;49.014;12.052;2023-07-13T00:00:50;97677.00;;;23.90
19040;BMP180;9652;49.014;12.052;2023-07-13T00:03:17;97686.00;;;23.90
19040;BMP180;9652;49.014;12.052;2023-07-13T00:05:44;97677.00;;;23.80
19040;BMP180;9652;49.014;12.052;2023-07-13T00:08:11;97621.00;;;23.80
19040;BMP180;9652;49.014;12.052;2023-07-13T00:10:42;97640.00;;;23.80
19040;BMP180;9652;49.014;12.052;2023-07-13T00:13:12;97602.00;;;23.80
19040;BMP180;9652;49.014;12.052;2023-07-13T00:15:39;97633.00;;;23.70
19040;BMP180;9652;49.014;12.052;2023-07-13T00:18:07;97709.00;;;23.70
19040;BMP180;9652;49.014;12.052;2023-07-13T00:20:34;97703.00;;;23.70
19040;BMP180;9652;49.014;12.052;2023-07-13T00:23:02;97609.00;;;23.70
19040;BMP180;9652;49.014;12.052;2023-07-13T00:25:29;97692.00;;;23.20
19040;BMP180;9652;49.014;12.052;2023-07-13T00:27:56;97696.00;;;23.70
19040;BMP180;9652;49.014;12.052;2023-07-13T00:30:24;97679.00;;;23.60
19040;BMP180;9652;49.014;12.052;2023-07-13T00:32:51;97599.00;;;23.60
19040;BMP180;9652;49.014;12.052;2023-07-13T00:35:20;97667.00;;;23.60
19040;BMP180;9652;49.014;12.052;2023-07-13T00:37:47;97504.00;;;23.60
19040;BMP180;9652;49.014;12.052;2023-07-13T00:40:16;97578.00;;;23.60
19040;BMP180;9652;49.014;12.052;2023-07-13T00:42:45;97676.00;;;23.50
19040;BMP180;9652;49.014;12.052;2023-07-13T00:48:36;97598.00;;;23.50
19040;BMP180;9652;49.014;12.052;2023-07-13T00:51:05;97681.00;;;23.40
19040;BMP180;9652;49.014;12.052;2023-07-13T00:53:34;97630.00;;;23.40
19040;BMP180;9652;49.014;12.052;2023-07-13T00:56:02;97650.00;;;23.40
19040;BMP180;9652;49.014;12.052;2023-07-13T00:58:30;97693.00;;;23.40
19040;BMP180;9652;49.014;12.052;2023-07-13T01:00:57;97690.00;;;23.40
19040;BMP180;9652;49.014;12.052;2023-07-13T01:03:24;97658.00;;;23.40
19040;BMP180;9652;49.014;12.052;2023-07-13T01:05:53;97615.00;;;23.50
19040;BMP180;9652;49.014;12.052;2023-07-13T01:08:22;97570.00;;;23.40
19040;BMP180;9652;49.014;12.052;2023-07-13T01:10:55;97696.00;;;23.00
19040;BMP180;9652;49.014;12.052;2023-07-13T01:13:22;97681.00;;;23.40
19040;BMP180;9652;49.014;12.052;2023-07-13T01:15:52;97528.00;;;23.40
19040;BMP180;9652;49.014;12.052;2023-07-13T01:18:21;97671.00;;;23.50
19040;BMP180;9652;49.014;12.052;2023-07-13T01:20:56;97669.00;;;23.40
19040;BMP180;9652;49.014;12.052;2023-07-13T01:23:26;97676.00;;;23.30
19040;BMP180;9652;49.014;12.052;2023-07-13T01:25:56;97674.00;;;23.50
19040;BMP180;9652;49.014;12.052;2023-07-13T01:28:25;97674.00;;;23.50
19040;BMP180;9652;49.014;12.052;2023-07-13T01:30:55;97690.00;;;23.50
19040;BMP180;9652;49.014;12.052;2023-07-13T01:33:23;97604.00;;;23.50
19040;BMP180;9652;49.014;12.052;2023-07-13T01:35:51;97557.00;;;23.40
19040;BMP180;9652;49.014;12.052;2023-07-13T01:38:22;97577.00;;;22.80
19040;BMP180;9652;49.014;12.052;2023-07-13T01:40:50;97604.00;;;23.40
19040;BMP180;9652;49.014;12.052;2023-07-13T01:43:18;97663.00;;;23.40
19040;BMP180;9652;49.014;12.052;2023-07-13T01:45:45;97558.00;;;23.40
19040;BMP180;9652;49.014;12.052;2023-07-13T01:48:13;97656.00;;;23.40
19040;BMP180;9652;49.014;12.052;2023-07-13T01:50:41;97624.00;;;23.40
19040;BMP180;9652;49.014;12.052;2023-07-13T01:53:09;97655.00;;;23.40
19040;BMP180;9652;49.014;12.052;2023-07-13T01:55:37;97653.00;;;23.40
19040;BMP180;9652;49.014;12.052;2023-07-13T01:58:05;97647.00;;;23.40
19040;BMP180;9652;49.014;12.052;2023-07-13T02:00:33;97678.00;;;23.30
19040;BMP180;9652;49.014;12.052;2023-07-13T02:03:02;97631.00;;;23.20
19040;BMP180;9652;49.014;12.052;2023-07-13T02:05:30;97576.00;;;23.30
19040;BMP180;9652;49.014;12.052;2023-07-13T02:07:58;97668.00;;;23.30
19040;BMP180;9652;49.014;12.052;2023-07-13T02:10:25;97556.00;;;23.20
19040;BMP180;9652;49.014;12.052;2023-07-13T02:12:53;97614.00;;;23.20
19040;BMP180;9652;49.014;12.052;2023-07-13T02:15:20;97661.00;;;23.20
19040;BMP180;9652;49.014;12.052;2023-07-13T02:17:48;97674.00;;;23.10
19040;BMP180;9652;49.014;12.052;2023-07-13T02:20:15;97586.00;;;23.10
19040;BMP180;9652;49.014;12.052;2023-07-13T02:22:42;97522.00;;;23.00
19040;BMP180;9652;49.014;12.052;2023-07-13T02:25:09;97615.00;;;23.00
19040;BMP180;9652;49.014;12.052;2023-07-13T02:27:36;97613.00;;;23.00
19040;BMP180;9652;49.014;12.052;2023-07-13T02:30:10;97666.00;;;22.90
19040;BMP180;9652;49.014;12.052;2023-07-13T02:32:37;97572.00;;;22.90
19040;BMP180;9652;49.014;12.052;2023-07-13T02:35:05;97624.00;;;22.70
19040;BMP180;9652;49.014;12.052;2023-07-13T02:37:32;97625.00;;;22.80
19040;BMP180;9652;49.014;12.052;2023-07-13T02:39:59;97665.00;;;22.80
19040;BMP180;9652;49.014;12.052;2023-07-13T02:42:29;97648.00;;;22.80
19040;BMP180;9652;49.014;12.052;2023-07-13T02:44:56;97666.00;;;22.70
19040;BMP180;9652;49.014;12.052;2023-07-13T02:47:25;97546.00;;;22.70
19040;BMP180;9652;49.014;12.052;2023-07-13T02:49:53;97621.00;;;22.70
19040;BMP180;9652;49.014;12.052;2023-07-13T02:52:20;97688.00;;;22.60
19040;BMP180;9652;49.014;12.052;2023-07-13T02:54:47;97680.00;;;22.60
19040;BMP180;9652;49.014;12.052;2023-07-13T02:57:14;97541.00;;;22.60
19040;BMP180;9652;49.014;12.052;2023-07-13T02:59:42;97720.00;;;22.60
19040;BMP180;9652;49.014;12.052;2023-07-13T03:02:09;97640.00;;;22.50
19040;BMP180;9652;49.014;12.052;2023-07-13T03:04:38;97675.00;;;22.50
19040;BMP180;9652;49.014;12.052;2023-07-13T03:07:07;97711.00;;;22.50
19040;BMP180;9652;49.014;12.052;2023-07-13T03:09:36;97710.00;;;22.40
19040;BMP180;9652;49.014;12.052;2023-07-13T03:12:08;97700.00;;;22.40
19040;BMP180;9652;49.014;12.052;2023-07-13T03:14:36;97655.00;;;22.40
19040;BMP180;9652;49.014;12.052;2023-07-13T03:17:05;97693.00;;;22.30
19040;BMP180;9652;49.014;12.052;2023-07-13T03:19:36;97695.00;;;22.30
19040;BMP180;9652;49.014;12.052;2023-07-13T03:22:05;97706.00;;;22.30
19040;BMP180;9652;49.014;12.052;2023-07-13T03:24:34;97614.00;;;22.20
19040;BMP180;9652;49.014;12.052;2023-07-13T03:27:05;97674.00;;;22.20
19040;BMP180;9652;49.014;12.052;2023-07-13T03:29:35;97623.00;;;22.20
19040;BMP180;9652;49.014;12.052;2023-07-13T03:32:03;97712.00;;;22.20
19040;BMP180;9652;49.014;12.052;2023-07-13T03:34:31;97700.00;;;22.10
19040;BMP180;9652;49.014;12.052;2023-07-13T03:36:59;97707.00;;;22.10
19040;BMP180;9652;49.014;12.052;2023-07-13T03:39:28;97688.00;;;22.10
19040;BMP180;9652;49.014;12.052;2023-07-13T03:41:57;97690.00;;;22.10
19040;BMP180;9652;49.014;12.052;2023-07-13T03:44:24;97735.00;;;22.10
19040;BMP180;9652;49.014;12.052;2023-07-13T03:46:55;97747.00;;;22.00
19040;BMP180;9652;49.014;12.052;2023-07-13T03:49:23;97730.00;;;22.00
19040;BMP180;9652;49.014;12.052;2023-07-13T03:51:50;97756.00;;;22.00
19040;BMP180;9652;49.014;12.052;2023-07-13T03:54:17;97731.00;;;22.00
19040;BMP180;9652;49.014;12.052;2023-07-13T03:56:46;97739.00;;;21.90
19040;BMP180;9652;49.014;12.052;2023-07-13T03:59:13;97747.00;;;21.90
19040;BMP180;9652;49.014;12.052;2023-07-13T04:01:40;97630.00;;;22.00
19040;BMP180;9652;49.014;12.052;2023-07-13T04:04:07;97752.00;;;21.90
19040;BMP180;9652;49.014;12.052;2023-07-13T04:06:34;97745.00;;;22.00
19040;BMP180;9652;49.014;12.052;2023-07-13T04:09:03;97759.00;;;22.00
19040;BMP180;9652;49.014;12.052;2023-07-13T04:11:33;97780.00;;;22.00
19040;BMP180;9652;49.014;12.052;2023-07-13T04:14:03;97767.00;;;22.00
19040;BMP180;9652;49.014;12.052;2023-07-13T04:16:30;97747.00;;;22.00
19040;BMP180;9652;49.014;12.052;2023-07-13T04:18:58;97698.00;;;22.10
19040;BMP180;9652;49.014;12.052;2023-07-13T04:21:27;97753.00;;;22.10
19040;BMP180;9652;49.014;12.052;2023-07-13T04:23:54;97747.00;;;22.10
19040;BMP180;9652;49.014;12.052;2023-07-13T04:26:22;97747.00;;;22.20
19040;BMP180;9652;49.014;12.052;2023-07-13T04:28:49;97637.00;;;22.20
19040;BMP180;9652;49.014;12.052;2023-07-13T04:31:18;97754.00;;;22.30
19040;BMP180;9652;49.014;12.052;2023-07-13T04:33:46;97734.00;;;22.40
19040;BMP180;9652;49.014;12.052;2023-07-13T04:36:15;97739.00;;;22.40
19040;BMP180;9652;49.014;12.052;2023-07-13T04:38:42;97754.00;;;22.50
19040;BMP180;9652;49.014;12.052;2023-07-13T04:41:10;97748.00;;;22.60
19040;BMP180;9652;49.014;12.052;2023-07-13T04:43:38;97756.00;;;22.60
19040;BMP180;9652;49.014;12.052;2023-07-13T04:46:06;97739.00;;;22.70
19040;BMP180;9652;49.014;12.052;2023-07-13T04:48:36;97706.00;;;22.70
19040;BMP180;9652;49.014;12.052;2023-07-13T04:51:03;97794.00;;;22.80
19040;BMP180;9652;49.014;12.052;2023-07-13T04:53:32;97757.00;;;22.80
19040;BMP180;9652;49.014;12.052;2023-07-13T04:56:00;97557.00;;;22.80
19040;BMP180;9652;49.014;12.052;2023-07-13T04:58:27;97613.00;;;22.90
19040;BMP180;9652;49.014;12.052;2023-07-13T05:01:00;97782.00;;;22.90
19040;BMP180;9652;49.014;12.052;2023-07-13T05:03:28;97777.00;;;22.90
19040;BMP180;9652;49.014;12.052;2023-07-13T05:05:59;97779.00;;;22.90
19040;BMP180;9652;49.014;12.052;2023-07-13T05:08:27;97782.00;;;23.00
19040;BMP180;9652;49.014;12.052;2023-07-13T05:10:54;97784.00;;;22.60
19040;BMP180;9652;49.014;12.052;2023-07-13T05:13:22;97758.00;;;22.90
19040;BMP180;9652;49.014;12.052;2023-07-13T05:15:57;97775.00;;;23.00
19040;BMP180;9652;49.014;12.052;2023-07-13T05:18:25;97735.00;;;23.00
19040;BMP180;9652;49.014;12.052;2023-07-13T05:21:00;97819.00;;;23.00
19040;BMP180;9652;49.014;12.052;2023-07-13T05:23:28;97814.00;;;23.00
19040;BMP180;9652;49.014;12.052;2023-07-13T05:25:55;97790.00;;;23.00
19040;BMP180;9652;49.014;12.052;2023-07-13T05:28:23;97794.00;;;23.10
19040;BMP180;9652;49.014;12.052;2023-07-13T05:30:50;97797.00;;;23.10
19040;BMP180;9652;49.014;12.052;2023-07-13T05:33:17;97797.00;;;23.20
19040;BMP180;9652;49.014;12.052;2023-07-13T05:35:45;97824.00;;;23.20
19040;BMP180;9652;49.014;12.052;2023-07-13T05:38:13;97795.00;;;23.30
19040;BMP180;9652;49.014;12.052;2023-07-13T05:40:43;97794.00;;;23.30
19040;BMP180;9652;49.014;12.052;2023-07-13T05:43:10;97806.00;;;23.40
19040;BMP180;9652;49.014;12.052;2023-07-13T05:45:37;97825.00;;;23.30
19040;BMP180;9652;49.014;12.052;2023-07-13T05:48:05;97796.00;;;23.50
19040;BMP180;9652;49.014;12.052;2023-07-13T05:50:32;97841.00;;;23.50
19040;BMP180;9652;49.014;12.052;2023-07-13T05:52:59;97726.00;;;23.50
19040;BMP180;9652;49.014;12.052;2023-07-13T05:55:27;97674.00;;;23.60
19040;BMP180;9652;49.014;12.052;2023-07-13T05:57:55;97797.00;;;23.10
19040;BMP180;9652;49.014;12.052;2023-07-13T06:00:24;97668.00;;;23.60
19040;BMP180;9652;49.014;12.052;2023-07-13T06:02:51;97810.00;;;23.70
19040;BMP180;9652;49.014;12.052;2023-07-13T06:05:19;97804.00;;;23.70
19040;BMP180;9652;49.014;12.052;2023-07-13T06:07:46;97832.00;;;23.70
19040;BMP180;9652;49.014;12.052;2023-07-13T06:10:14;97810.00;;;23.70
19040;BMP180;9652;49.014;12.052;2023-07-13T06:12:43;97811.00;;;23.70
19040;BMP180;9652;49.014;12.052;2023-07-13T06:15:11;97816.00;;;23.70
19040;BMP180;9652;49.014;12.052;2023-07-13T06:17:39;97815.00;;;23.70
19040;BMP180;9652;49.014;12.052;2023-07-13T06:20:08;97735.00;;;23.70
19040;BMP180;9652;49.014;12.052;2023-07-13T06:22:36;97734.00;;;23.70
19040;BMP180;9652;49.014;12.052;2023-07-13T06:25:04;97796.00;;;23.70
19040;BMP180;9652;49.014;12.052;2023-07-13T06:27:31;97820.00;;;23.80
19040;BMP180;9652;49.014;12.052;2023-07-13T06:30:00;97753.00;;;23.80
19040;BMP180;9652;49.014;12.052;2023-07-13T06:32:28;97773.00;;;23.80
19040;BMP180;9652;49.014;12.052;2023-07-13T06:34:55;97835.00;;;23.80
19040;BMP180;9652;49.014;12.052;2023-07-13T06:37:22;97661.00;;;23.80
19040;BMP180;9652;49.014;12.052;2023-07-13T06:39:49;97847.00;;;23.80
19040;BMP180;9652;49.014;12.052;2023-07-13T06:42:17;97838.00;;;23.80
19040;BMP180;9652;49.014;12.052;2023-07-13T06:44:44;97859.00;;;23.80
19040;BMP180;9652;49.014;12.052;2023-07-13T06:47:13;97858.00;;;23.70
19040;BMP180;9652;49.014;12.052;2023-07-13T06:49:40;97831.00;;;23.80
19040;BMP180;9652;49.014;12.052;2023-07-13T06:52:07;97834.00;;;23.90
19040;BMP180;9652;49.014;12.052;2023-07-13T06:54:34;97833.00;;;23.90
19040;BMP180;9652;49.014;12.052;2023-07-13T06:57:01;97848.00;;;23.90
19040;BMP180;9652;49.014;12.052;2023-07-13T06:59:28;97810.00;;;24.00
19040;BMP180;9652;49.014;12.052;2023-07-13T07:01:56;97870.00;;;24.00
19040;BMP180;9652;49.014;12.052;2023-07-13T07:04:24;97825.00;;;24.00
19040;BMP180;9652;49.014;12.052;2023-07-13T07:06:52;97875.00;;;24.00
19040;BMP180;9652;49.014;12.052;2023-07-13T07:09:19;97843.00;;;24.20
19040;BMP180;9652;49.014;12.052;2023-07-13T07:11:47;97840.00;;;24.20
19040;BMP180;9652;49.014;12.052;2023-07-13T07:14:14;97870.00;;;24.40
19040;BMP180;9652;49.014;12.052;2023-07-13T07:16:41;97853.00;;;24.50
19040;BMP180;9652;49.014;12.052;2023-07-13T07:19:08;97773.00;;;24.60
19040;BMP180;9652;49.014;12.052;2023-07-13T07:21:37;97843.00;;;24.70
19040;BMP180;9652;49.014;12.052;2023-07-13T07:24:05;97844.00;;;24.90
19040;BMP180;9652;49.014;12.052;2023-07-13T07:26:33;97857.00;;;25.00
19040;BMP180;9652;49.014;12.052;2023-07-13T07:29:00;97860.00;;;25.20
19040;BMP180;9652;49.014;12.052;2023-07-13T07:31:27;97868.00;;;25.40
19040;BMP180;9652;49.014;12.052;2023-07-13T07:33:55;97831.00;;;25.60
19040;BMP180;9652;49.014;12.052;2023-07-13T07:36:22;97874.00;;;25.70
19040;BMP180;9652;49.014;12.052;2023-07-13T07:38:51;97877.00;;;25.90
19040;BMP180;9652;49.014;12.052;2023-07-13T07:41:18;97881.00;;;26.10
19040;BMP180;9652;49.014;12.052;2023-07-13T07:43:45;97880.00;;;26.20
19040;BMP180;9652;49.014;12.052;2023-07-13T07:46:12;97879.00;;;26.20
19040;BMP180;9652;49.014;12.052;2023-07-13T07:48:39;97875.00;;;26.20
19040;BMP180;9652;49.014;12.052;2023-07-13T07:51:06;97876.00;;;26.30
19040;BMP180;9652;49.014;12.052;2023-07-13T07:53:33;97889.00;;;26.20
19040;BMP180;9652;49.014;12.052;2023-07-13T07:56:02;97885.00;;;26.20
19040;BMP180;9652;49.014;12.052;2023-07-13T07:58:29;97886.00;;;26.10
19040;BMP180;9652;49.014;12.052;2023-07-13T08:01:03;97889.00;;;26.10
19040;BMP180;9652;49.014;12.052;2023-07-13T08:03:30;97892.00;;;26.10
19040;BMP180;9652;49.014;12.052;2023-07-13T08:05:57;97891.00;;;26.10
19040;BMP180;9652;49.014;12.052;2023-07-13T08:08:25;97881.00;;;26.10
19040;BMP180;9652;49.014;12.052;2023-07-13T08:10:52;97888.00;;;26.10
19040;BMP180;9652;49.014;12.052;2023-07-13T08:13:21;97909.00;;;26.10
19040;BMP180;9652;49.014;12.052;2023-07-13T08:15:48;97912.00;;;26.10
19040;BMP180;9652;49.014;12.052;2023-07-13T08:18:16;97861.00;;;26.10
19040;BMP180;9652;49.014;12.052;2023-07-13T08:20:43;97906.00;;;26.10
19040;BMP180;9652;49.014;12.052;2023-07-13T08:23:11;97905.00;;;26.10
19040;BMP180;9652;49.014;12.052;2023-07-13T08:25:38;97909.00;;;26.10
19040;BMP180;9652;49.014;12.052;2023-07-13T08:28:05;97903.00;;;26.10
19040;BMP180;9652;49.014;12.052;2023-07-13T08:30:33;97879.00;;;26.10
19040;BMP180;9652;49.014;12.052;2023-07-13T08:33:02;97912.00;;;26.10
19040;BMP180;9652;49.014;12.052;2023-07-13T08:35:29;97869.00;;;26.10
19040;BMP180;9652;49.014;12.052;2023-07-13T08:37:56;97918.00;;;26.10
19040;BMP180;9652;49.014;12.052;2023-07-13T08:40:25;97922.00;;;26.10
19040;BMP180;9652;49.014;12.052;2023-07-13T08:42:56;97920.00;;;26.20
19040;BMP180;9652;49.014;12.052;2023-07-13T08:45:30;97920.00;;;26.20
19040;BMP180;9652;49.014;12.052;2023-07-13T08:48:05;97929.00;;;26.20
19040;BMP180;9652;49.014;12.052;2023-07-13T08:50:47;97915.00;;;26.30
19040;BMP180;9652;49.014;12.052;2023-07-13T08:53:16;97925.00;;;26.30
19040;BMP180;9652;49.014;12.052;2023-07-13T08:55:44;97933.00;;;26.40
19040;BMP180;9652;49.014;12.052;2023-07-13T08:58:14;97927.00;;;26.50
19040;BMP180;9652;49.014;12.052;2023-07-13T09:00:50;97940.00;;;26.70
19040;BMP180;9652;49.014;12.052;2023-07-13T09:03:26;97943.00;;;26.90
19040;BMP180;9652;49.014;12.052;2023-07-13T09:05:59;97950.00;;;27.10
19040;BMP180;9652;49.014;12.052;2023-07-13T09:08:45;97954.00;;;27.20
19040;BMP180;9652;49.014;12.052;2023-07-13T09:11:29;97952.00;;;27.30
19040;BMP180;9652;49.014;12.052;2023-07-13T09:14:19;97958.00;;;27.40
19040;BMP180;9652;49.014;12.052;2023-07-13T09:16:54;97917.00;;;27.40
19040;BMP180;9652;49.014;12.052;2023-07-13T09:19:28;97939.00;;;27.50
19040;BMP180;9652;49.014;12.052;2023-07-13T09:22:02;97947.00;;;27.60
19040;BMP180;9652;49.014;12.052;2023-07-13T09:24:37;97949.00;;;27.40
19040;BMP180;9652;49.014;12.052;2023-07-13T09:27:15;97945.00;;;27.60
19040;BMP180;9652;49.014;12.052;2023-07-13T09:29:51;97947.00;;;27.60
19040;BMP180;9652;49.014;12.052;2023-07-13T09:32:24;97957.00;;;27.50
19040;BMP180;9652;49.014;12.052;2023-07-13T09:34:54;97954.00;;;27.50
19040;BMP180;9652;49.014;12.052;2023-07-13T09:37:29;97948.00;;;27.50
19040;BMP180;9652;49.014;12.052;2023-07-13T09:39:59;97951.00;;;27.50
19040;BMP180;9652;49.014;12.052;2023-07-13T09:42:32;97915.00;;;27.50
19040;BMP180;9652;49.014;12.052;2023-07-13T09:45:01;97942.00;;;27.50
19040;BMP180;9652;49.014;12.052;2023-07-13T09:47:32;97954.00;;;27.50
19040;BMP180;9652;49.014;12.052;2023-07-13T09:50:05;97955.00;;;27.60
19040;BMP180;9652;49.014;12.052;2023-07-13T09:52:42;97955.00;;;27.60
19040;BMP180;9652;49.014;12.052;2023-07-13T09:55:25;97925.00;;;27.60
19040;BMP180;9652;49.014;12.052;2023-07-13T09:57:53;97948.00;;;27.60
19040;BMP180;9652;49.014;12.052;2023-07-13T10:00:27;97952.00;;;27.60
19040;BMP180;9652;49.014;12.052;2023-07-13T10:03:04;97953.00;;;27.70
19040;BMP180;9652;49.014;12.052;2023-07-13T10:05:42;97958.00;;;27.80
19040;BMP180;9652;49.014;12.052;2023-07-13T10:08:20;97962.00;;;27.90
19040;BMP180;9652;49.014;12.052;2023-07-13T10:10:57;97962.00;;;27.90
19040;BMP180;9652;49.014;12.052;2023-07-13T10:13:36;97958.00;;;28.10
19040;BMP180;9652;49.014;12.052;2023-07-13T10:16:06;97960.00;;;28.20
19040;BMP180;9652;49.014;12.052;2023-07-13T10:18:41;97964.00;;;28.20
19040;BMP180;9652;49.014;12.052;2023-07-13T10:21:15;97960.00;;;28.40
19040;BMP180;9652;49.014;12.052;2023-07-13T10:23:48;97951.00;;;28.50
19040;BMP180;9652;49.014;12.052;2023-07-13T10:26:23;97950.00;;;28.60
19040;BMP180;9652;49.014;12.052;2023-07-13T10:28:56;97933.00;;;28.70
19040;BMP180;9652;49.014;12.052;2023-07-13T10:31:24;97955.00;;;28.80
19040;BMP180;9652;49.014;12.052;2023-07-13T10:33:51;97964.00;;;28.90
19040;BMP180;9652;49.014;12.052;2023-07-13T10:36:32;97960.00;;;29.10
19040;BMP180;9652;49.014;12.052;2023-07-13T10:39:04;97963.00;;;29.10
19040;BMP180;9652;49.014;12.052;2023-07-13T10:41:37;97962.00;;;29.20
19040;BMP180;9652;49.014;12.052;2023-07-13T10:44:18;97961.00;;;29.30
19040;BMP180;9652;49.014;12.052;2023-07-13T10:46:46;97957.00;;;29.40
19040;BMP180;9652;49.014;12.052;2023-07-13T10:49:15;97967.00;;;29.40
19040;BMP180;9652;49.014;12.052;2023-07-13T10:51:45;97969.00;;;29.40
19040;BMP180;9652;49.014;12.052;2023-07-13T10:54:21;97991.00;;;29.40
19040;BMP180;9652;49.014;12.052;2023-07-13T10:57:07;97971.00;;;29.40
19040;BMP180;9652;49.014;12.052;2023-07-13T10:59:37;97954.00;;;29.30
19040;BMP180;9652;49.014;12.052;2023-07-13T11:02:25;97961.00;;;29.20
19040;BMP180;9652;49.014;12.052;2023-07-13T11:04:55;97989.00;;;29.10
19040;BMP180;9652;49.014;12.052;2023-07-13T11:07:28;97961.00;;;28.90
19040;BMP180;9652;49.014;12.052;2023-07-13T11:09:57;97965.00;;;28.80
19040;BMP180;9652;49.014;12.052;2023-07-13T11:12:50;97970.00;;;28.70
19040;BMP180;9652;49.014;12.052;2023-07-13T11:15:32;97967.00;;;28.70
19040;BMP180;9652;49.014;12.052;2023-07-13T11:18:04;97971.00;;;28.60
19040;BMP180;9652;49.014;12.052;2023-07-13T11:20:37;97963.00;;;28.60
19040;BMP180;9652;49.014;12.052;2023-07-13T11:23:30;97953.00;;;28.50
19040;BMP180;9652;49.014;12.052;2023-07-13T11:25:58;97953.00;;;28.40
19040;BMP180;9652;49.014;12.052;2023-07-13T11:28:31;97963.00;;;28.50
19040;BMP180;9652;49.014;12.052;2023-07-13T11:31:13;97966.00;;;28.50
19040;BMP180;9652;49.014;12.052;2023-07-13T11:33:57;97959.00;;;28.50
19040;BMP180;9652;49.014;12.052;2023-07-13T11:36:32;97939.00;;;28.60
19040;BMP180;9652;49.014;12.052;2023-07-13T11:39:18;97948.00;;;28.50
19040;BMP180;9652;49.014;12.052;2023-07-13T11:41:52;97957.00;;;28.60
19040;BMP180;9652;49.014;12.052;2023-07-13T11:44:24;97951.00;;;28.60
19040;BMP180;9652;49.014;12.052;2023-07-13T11:46:54;97954.00;;;28.70
19040;BMP180;9652;49.014;12.052;2023-07-13T11:49:23;97959.00;;;28.70
19040;BMP180;9652;49.014;12.052;2023-07-13T11:51:51;97940.00;;;28.70
19040;BMP180;9652;49.014;12.052;2023-07-13T11:54:27;97947.00;;;28.70
19040;BMP180;9652;49.014;12.052;2023-07-13T11:56:58;97943.00;;;28.70
19040;BMP180;9652;49.014;12.052;2023-07-13T11:59:29;97933.00;;;28.70
19040;BMP180;9652;49.014;12.052;2023-07-13T12:01:59;97952.00;;;28.70
19040;BMP180;9652;49.014;12.052;2023-07-13T12:04:32;97946.00;;;28.70
19040;BMP180;9652;49.014;12.052;2023-07-13T12:07:06;97959.00;;;28.80
19040;BMP180;9652;49.014;12.052;2023-07-13T12:09:36;97963.00;;;28.80
19040;BMP180;9652;49.014;12.052;2023-07-13T12:12:12;97977.00;;;28.80
19040;BMP180;9652;49.014;12.052;2023-07-13T12:14:40;97933.00;;;28.80
19040;BMP180;9652;49.014;12.052;2023-07-13T12:17:19;97944.00;;;28.90
19040;BMP180;9652;49.014;12.052;2023-07-13T12:19:49;97946.00;;;28.90
19040;BMP180;9652;49.014;12.052;2023-07-13T12:22:20;97953.00;;;29.00
19040;BMP180;9652;49.014;12.052;2023-07-13T12:24:52;97917.00;;;29.10
19040;BMP180;9652;49.014;12.052;2023-07-13T12:27:23;97936.00;;;29.20
19040;BMP180;9652;49.014;12.052;2023-07-13T12:29:56;97941.00;;;29.20
19040;BMP180;9652;49.014;12.052;2023-07-13T12:32:25;97944.00;;;29.10
19040;BMP180;9652;49.014;12.052;2023-07-13T12:34:55;97929.00;;;29.30
19040;BMP180;9652;49.014;12.052;2023-07-13T12:37:24;97936.00;;;29.40
19040;BMP180;9652;49.014;12.052;2023-07-13T12:39:52;97922.00;;;29.40
19040;BMP180;9652;49.014;12.052;2023-07-13T12:42:23;97932.00;;;29.50
19040;BMP180;9652;49.014;12.052;2023-07-13T12:44:54;97941.00;;;29.40
19040;BMP180;9652;49.014;12.052;2023-07-13T12:47:23;97922.00;;;29.40
19040;BMP180;9652;49.014;12.052;2023-07-13T12:49:56;97920.00;;;29.40
19040;BMP180;9652;49.014;12.052;2023-07-13T12:52:29;97924.00;;;29.40
19040;BMP180;9652;49.014;12.052;2023-07-13T12:55:07;97924.00;;;29.50
19040;BMP180;9652;49.014;12.052;2023-07-13T12:57:44;97917.00;;;29.60
19040;BMP180;9652;49.014;12.052;2023-07-13T13:00:28;97910.00;;;29.60
19040;BMP180;9652;49.014;12.052;2023-07-13T13:03:05;97908.00;;;29.70
19040;BMP180;9652;49.014;12.052;2023-07-13T13:05:36;97901.00;;;29.80
19040;BMP180;9652;49.014;12.052;2023-07-13T13:08:04;97908.00;;;29.90
19040;BMP180;9652;49.014;12.052;2023-07-13T13:10:32;97897.00;;;30.00
19040;BMP180;9652;49.014;12.052;2023-07-13T13:13:01;97915.00;;;30.10
19040;BMP180;9652;49.014;12.052;2023-07-13T13:15:29;97892.00;;;30.20
19040;BMP180;9652;49.014;12.052;2023-07-13T13:17:57;97897.00;;;30.40
19040;BMP180;9652;49.014;12.052;2023-07-13T13:20:25;97905.00;;;30.60
19040;BMP180;9652;49.014;12.052;2023-07-13T13:22:53;97811.00;;;31.00
19040;BMP180;9652;49.014;12.052;2023-07-13T13:25:21;97838.00;;;31.30
19040;BMP180;9652;49.014;12.052;2023-07-13T13:27:50;97883.00;;;31.50
19040;BMP180;9652;49.014;12.052;2023-07-13T13:30:18;97900.00;;;31.70
19040;BMP180;9652;49.014;12.052;2023-07-13T13:32:48;97894.00;;;32.00
19040;BMP180;9652;49.014;12.052;2023-07-13T13:35:18;97891.00;;;32.30
19040;BMP180;9652;49.014;12.052;2023-07-13T13:37:46;97885.00;;;32.40
19040;BMP180;9652;49.014;12.052;2023-07-13T13:40:19;97889.00;;;32.60
19040;BMP180;9652;49.014;12.052;2023-07-13T13:42:46;97895.00;;;32.80
19040;BMP180;9652;49.014;12.052;2023-07-13T13:45:15;97881.00;;;32.80
19040;BMP180;9652;49.014;12.052;2023-07-13T13:47:44;97902.00;;;33.20
19040;BMP180;9652;49.014;12.052;2023-07-13T13:50:14;97897.00;;;33.10
19040;BMP180;9652;49.014;12.052;2023-07-13T13:52:42;97903.00;;;33.20
19040;BMP180;9652;49.014;12.052;2023-07-13T13:55:14;97895.00;;;33.10
19040;BMP180;9652;49.014;12.052;2023-07-13T13:57:41;97903.00;;;33.10
19040;BMP180;9652;49.014;12.052;2023-07-13T14:00:10;97919.00;;;33.10
19040;BMP180;9652;49.014;12.052;2023-07-13T14:02:44;97913.00;;;33.30
19040;BMP180;9652;49.014;12.052;2023-07-13T14:05:23;97900.00;;;33.40
19040;BMP180;9652;49.014;12.052;2023-07-13T14:07:52;97906.00;;;33.60
19040;BMP180;9652;49.014;12.052;2023-07-13T14:10:20;97911.00;;;33.60
19040;BMP180;9652;49.014;12.052;2023-07-13T14:12:51;97917.00;;;33.60
19040;BMP180;9652;49.014;12.052;2023-07-13T14:15:23;97910.00;;;33.70
19040;BMP180;9652;49.014;12.052;2023-07-13T14:17:52;97887.00;;;33.80
19040;BMP180;9652;49.014;12.052;2023-07-13T14:20:22;97914.00;;;33.80
19040;BMP180;9652;49.014;12.052;2023-07-13T14:22:51;97910.00;;;33.80
19040;BMP180;9652;49.014;12.052;2023-07-13T14:25:21;97905.00;;;33.70
19040;BMP180;9652;49.014;12.052;2023-07-13T14:27:53;97912.00;;;33.60